sensor_id;sensor_type;location;lat;lon;timestamp;temperature;humidity
7686;DHT22;3885;51.474;-2.576;2023-04-24T00:00:15;5.90;99.90
7686;DHT22;3885;51.474;-2.576;2023-04-24T00:02:45;5.90;99.90
7686;DHT22;3885;51.474;-2.576;2023-04-24T00:05:13;5.90;99.90
7686;DHT22;3885;51.474;-2.576;2023-04-24T00:07:40;5.80;99.90
7686;DHT22;3885;51.474;-2.576;2023-04-24T00:10:08;5.80;99.90
7686;DHT22;3885;51.474;-2.576;2023-04-24T00:12:35;5.80;99.90
7686;DHT22;3885;51.474;-2.576;2023-04-24T00:15:03;5.80;99.90
7686;DHT22;3885;51.474;-2.576;2023-04-24T00:17:30;5.80;99.90
7686;DHT22;3885;51.474;-2.576;2023-04-24T00:19:58;5.70;99.90
7686;DHT22;3885;51.474;-2.576;2023-04-24T00:22:27;5.70;99.90
7686;DHT22;3885;51.474;-2.576;2023-04-24T00:24:54;5.70;99.90
7686;DHT22;3885;51.474;-2.576;2023-04-24T00:27:21;5.70;99.90
7686;DHT22;3885;51.474;-2.576;2023-04-24T00:29:48;5.70;99.90
7686;DHT22;3885;51.474;-2.576;2023-04-24T00:32:15;5.60;99.90
7686;DHT22;3885;51.474;-2.576;2023-04-24T00:37:11;5.60;99.90
7686;DHT22;3885;51.474;-2.576;2023-04-24T00:39:38;5.60;99.90
7686;DHT22;3885;51.474;-2.576;2023-04-24T00:42:05;5.60;99.90
7686;DHT22;3885;51.474;-2.576;2023-04-24T00:44:32;5.50;99.90
7686;DHT22;3885;51.474;-2.576;2023-04-24T00:49:27;5.50;99.90
7686;DHT22;3885;51.474;-2.576;2023-04-24T00:51:54;5.60;99.90
7686;DHT22;3885;51.474;-2.576;2023-04-24T00:54:23;5.60;99.90
7686;DHT22;3885;51.474;-2.576;2023-04-24T00:56:50;5.60;99.90
7686;DHT22;3885;51.474;-2.576;2023-04-24T00:59:18;5.60;99.90
7686;DHT22;3885;51.474;-2.576;2023-04-24T01:01:45;5.60;99.90
7686;DHT22;3885;51.474;-2.576;2023-04-24T01:04:12;5.70;99.90
7686;DHT22;3885;51.474;-2.576;2023-04-24T01:06:40;5.70;99.90
7686;DHT22;3885;51.474;-2.576;2023-04-24T01:09:08;5.70;99.90
7686;DHT22;3885;51.474;-2.576;2023-04-24T01:11:37;5.80;99.90
7686;DHT22;3885;51.474;-2.576;2023-04-24T01:14:04;5.80;99.90
7686;DHT22;3885;51.474;-2.576;2023-04-24T01:16:31;6.00;99.90
7686;DHT22;3885;51.474;-2.576;2023-04-24T01:18:58;6.10;99.90
7686;DHT22;3885;51.474;-2.576;2023-04-24T01:21:28;6.10;99.90
7686;DHT22;3885;51.474;-2.576;2023-04-24T01:23:57;6.10;99.90
7686;DHT22;3885;51.474;-2.576;2023-04-24T01:26:24;6.10;99.90
7686;DHT22;3885;51.474;-2.576;2023-04-24T01:28:51;6.10;99.90
7686;DHT22;3885;51.474;-2.576;2023-04-24T01:31:19;6.20;99.90
7686;DHT22;3885;51.474;-2.576;2023-04-24T01:33:46;6.20;99.90
7686;DHT22;3885;51.474;-2.576;2023-04-24T01:36:14;6.30;99.90
7686;DHT22;3885;51.474;-2.576;2023-04-24T01:38:41;6.30;99.90
7686;DHT22;3885;51.474;-2.576;2023-04-24T01:41:10;6.40;99.90
7686;DHT22;3885;51.474;-2.576;2023-04-24T01:43:37;6.30;99.90
7686;DHT22;3885;51.474;-2.576;2023-04-24T01:46:05;6.30;99.90
7686;DHT22;3885;51.474;-2.576;2023-04-24T01:48:33;6.40;99.90
7686;DHT22;3885;51.474;-2.576;2023-04-24T01:51:00;6.30;99.90
7686;DHT22;3885;51.474;-2.576;2023-04-24T01:53:27;6.30;99.90
7686;DHT22;3885;51.474;-2.576;2023-04-24T01:55:54;6.30;99.90
7686;DHT22;3885;51.474;-2.576;2023-04-24T01:58:22;6.30;99.90
7686;DHT22;3885;51.474;-2.576;2023-04-24T02:00:50;6.30;99.90
7686;DHT22;3885;51.474;-2.576;2023-04-24T02:03:17;6.30;99.90
7686;DHT22;3885;51.474;-2.576;2023-04-24T02:05:44;6.20;99.90
7686;DHT22;3885;51.474;-2.576;2023-04-24T02:08:11;6.20;99.90
7686;DHT22;3885;51.474;-2.576;2023-04-24T02:13:05;6.10;99.90
7686;DHT22;3885;51.474;-2.576;2023-04-24T02:15:33;6.10;99.90
7686;DHT22;3885;51.474;-2.576;2023-04-24T02:18:01;6.00;99.90
7686;DHT22;3885;51.474;-2.576;2023-04-24T02:20:28;5.90;99.90
7686;DHT22;3885;51.474;-2.576;2023-04-24T02:22:55;5.80;99.90
7686;DHT22;3885;51.474;-2.576;2023-04-24T02:25:22;5.80;99.90
7686;DHT22;3885;51.474;-2.576;2023-04-24T02:27:49;5.80;99.90
7686;DHT22;3885;51.474;-2.576;2023-04-24T02:30:16;5.80;99.90
7686;DHT22;3885;51.474;-2.576;2023-04-24T02:32:44;5.80;99.90
7686;DHT22;3885;51.474;-2.576;2023-04-24T02:35:11;5.80;99.90
7686;DHT22;3885;51.474;-2.576;2023-04-24T02:37:38;5.80;99.90
7686;DHT22;3885;51.474;-2.576;2023-04-24T02:40:06;5.80;99.90
7686;DHT22;3885;51.474;-2.576;2023-04-24T02:42:33;5.80;99.90
7686;DHT22;3885;51.474;-2.576;2023-04-24T02:45:00;5.80;99.90
7686;DHT22;3885;51.474;-2.576;2023-04-24T02:47:27;5.70;99.90
7686;DHT22;3885;51.474;-2.576;2023-04-24T02:49:55;5.70;99.90
7686;DHT22;3885;51.474;-2.576;2023-04-24T02:52:22;5.60;99.90
7686;DHT22;3885;51.474;-2.576;2023-04-24T02:54:49;5.60;99.90
7686;DHT22;3885;51.474;-2.576;2023-04-24T02:57:16;5.70;99.90
7686;DHT22;3885;51.474;-2.576;2023-04-24T02:59:43;5.60;99.90
7686;DHT22;3885;51.474;-2.576;2023-04-24T03:02:10;5.70;99.90
7686;DHT22;3885;51.474;-2.576;2023-04-24T03:04:37;5.70;99.90
7686;DHT22;3885;51.474;-2.576;2023-04-24T03:07:06;5.70;99.90
7686;DHT22;3885;51.474;-2.576;2023-04-24T03:12:00;6.00;99.90
7686;DHT22;3885;51.474;-2.576;2023-04-24T03:14:27;6.10;99.90
7686;DHT22;3885;51.474;-2.576;2023-04-24T03:19:25;6.20;99.90
7686;DHT22;3885;51.474;-2.576;2023-04-24T03:21:52;6.30;99.90
7686;DHT22;3885;51.474;-2.576;2023-04-24T03:24:20;6.30;99.90
7686;DHT22;3885;51.474;-2.576;2023-04-24T03:29:15;6.40;99.90
7686;DHT22;3885;51.474;-2.576;2023-04-24T03:31:42;6.50;99.90
7686;DHT22;3885;51.474;-2.576;2023-04-24T03:34:09;6.50;99.90
7686;DHT22;3885;51.474;-2.576;2023-04-24T03:36:35;6.50;99.90
7686;DHT22;3885;51.474;-2.576;2023-04-24T03:39:02;6.50;99.90
7686;DHT22;3885;51.474;-2.576;2023-04-24T03:41:32;6.50;99.90
7686;DHT22;3885;51.474;-2.576;2023-04-24T03:43:59;6.50;99.90
7686;DHT22;3885;51.474;-2.576;2023-04-24T03:46:26;6.50;99.90
7686;DHT22;3885;51.474;-2.576;2023-04-24T03:48:52;6.50;99.90
7686;DHT22;3885;51.474;-2.576;2023-04-24T03:51:19;6.50;99.90
7686;DHT22;3885;51.474;-2.576;2023-04-24T03:53:47;6.50;99.90
7686;DHT22;3885;51.474;-2.576;2023-04-24T03:58:42;6.40;99.90
7686;DHT22;3885;51.474;-2.576;2023-04-24T04:01:09;6.40;99.90
7686;DHT22;3885;51.474;-2.576;2023-04-24T04:03:37;6.30;99.90
7686;DHT22;3885;51.474;-2.576;2023-04-24T04:06:04;6.30;99.90
7686;DHT22;3885;51.474;-2.576;2023-04-24T04:08:31;6.20;99.90
7686;DHT22;3885;51.474;-2.576;2023-04-24T04:10:58;6.20;99.90
7686;DHT22;3885;51.474;-2.576;2023-04-24T04:13:25;6.20;99.90
7686;DHT22;3885;51.474;-2.576;2023-04-24T04:15:53;6.10;99.90
7686;DHT22;3885;51.474;-2.576;2023-04-24T04:18:20;6.10;99.90
7686;DHT22;3885;51.474;-2.576;2023-04-24T04:20:47;6.10;99.90
7686;DHT22;3885;51.474;-2.576;2023-04-24T04:23:14;6.10;99.90
7686;DHT22;3885;51.474;-2.576;2023-04-24T04:25:41;6.10;99.90
7686;DHT22;3885;51.474;-2.576;2023-04-24T04:28:08;6.00;99.90
7686;DHT22;3885;51.474;-2.576;2023-04-24T04:30:35;6.00;99.90
7686;DHT22;3885;51.474;-2.576;2023-04-24T04:33:05;6.00;99.90
7686;DHT22;3885;51.474;-2.576;2023-04-24T04:35:32;6.00;99.90
7686;DHT22;3885;51.474;-2.576;2023-04-24T04:37:59;6.00;99.90
7686;DHT22;3885;51.474;-2.576;2023-04-24T04:40:26;6.00;99.90
7686;DHT22;3885;51.474;-2.576;2023-04-24T04:42:53;6.00;99.90
7686;DHT22;3885;51.474;-2.576;2023-04-24T04:45:21;5.90;99.90
7686;DHT22;3885;51.474;-2.576;2023-04-24T04:47:49;5.90;99.90
7686;DHT22;3885;51.474;-2.576;2023-04-24T04:50:18;5.90;99.90
7686;DHT22;3885;51.474;-2.576;2023-04-24T04:55:12;5.80;99.90
7686;DHT22;3885;51.474;-2.576;2023-04-24T04:57:40;5.70;99.90
7686;DHT22;3885;51.474;-2.576;2023-04-24T05:00:08;5.60;99.90
7686;DHT22;3885;51.474;-2.576;2023-04-24T05:02:37;5.60;99.90
7686;DHT22;3885;51.474;-2.576;2023-04-24T05:05:05;5.50;99.90
7686;DHT22;3885;51.474;-2.576;2023-04-24T05:07:34;5.50;99.90
7686;DHT22;3885;51.474;-2.576;2023-04-24T05:10:01;5.30;99.90
7686;DHT22;3885;51.474;-2.576;2023-04-24T05:12:28;5.30;99.90
7686;DHT22;3885;51.474;-2.576;2023-04-24T05:14:55;5.20;99.90
7686;DHT22;3885;51.474;-2.576;2023-04-24T05:17:21;5.10;99.90
7686;DHT22;3885;51.474;-2.576;2023-04-24T05:19:48;5.10;99.90
7686;DHT22;3885;51.474;-2.576;2023-04-24T05:22:16;5.10;99.90
7686;DHT22;3885;51.474;-2.576;2023-04-24T05:24:47;5.10;99.90
7686;DHT22;3885;51.474;-2.576;2023-04-24T05:27:14;5.10;99.90
7686;DHT22;3885;51.474;-2.576;2023-04-24T05:29:41;5.10;99.90
7686;DHT22;3885;51.474;-2.576;2023-04-24T05:32:09;5.00;99.90
7686;DHT22;3885;51.474;-2.576;2023-04-24T05:34:36;5.00;99.90
7686;DHT22;3885;51.474;-2.576;2023-04-24T05:37:02;5.00;99.90
7686;DHT22;3885;51.474;-2.576;2023-04-24T05:39:33;5.00;99.90
7686;DHT22;3885;51.474;-2.576;2023-04-24T05:42:02;5.00;99.90
7686;DHT22;3885;51.474;-2.576;2023-04-24T05:44:30;5.00;99.90
7686;DHT22;3885;51.474;-2.576;2023-04-24T05:46:57;5.00;99.90
7686;DHT22;3885;51.474;-2.576;2023-04-24T05:49:24;5.10;99.90
7686;DHT22;3885;51.474;-2.576;2023-04-24T05:51:50;5.10;99.90
7686;DHT22;3885;51.474;-2.576;2023-04-24T05:54:17;5.20;99.90
7686;DHT22;3885;51.474;-2.576;2023-04-24T05:59:13;5.40;99.90
7686;DHT22;3885;51.474;-2.576;2023-04-24T06:04:07;5.60;99.90
7686;DHT22;3885;51.474;-2.576;2023-04-24T06:06:35;5.80;99.90
7686;DHT22;3885;51.474;-2.576;2023-04-24T06:09:02;6.00;99.90
7686;DHT22;3885;51.474;-2.576;2023-04-24T06:11:29;6.10;99.90
7686;DHT22;3885;51.474;-2.576;2023-04-24T06:16:24;6.50;99.90
7686;DHT22;3885;51.474;-2.576;2023-04-24T06:18:51;6.70;99.90
7686;DHT22;3885;51.474;-2.576;2023-04-24T06:21:18;6.90;99.90
7686;DHT22;3885;51.474;-2.576;2023-04-24T06:23:45;7.10;99.90
7686;DHT22;3885;51.474;-2.576;2023-04-24T06:26:13;7.40;99.90
7686;DHT22;3885;51.474;-2.576;2023-04-24T06:28:40;7.70;99.90
7686;DHT22;3885;51.474;-2.576;2023-04-24T06:31:07;8.10;99.90
7686;DHT22;3885;51.474;-2.576;2023-04-24T06:33:35;8.40;99.90
7686;DHT22;3885;51.474;-2.576;2023-04-24T06:36:02;8.60;99.90
7686;DHT22;3885;51.474;-2.576;2023-04-24T06:38:30;8.30;99.90
7686;DHT22;3885;51.474;-2.576;2023-04-24T06:40:56;8.30;99.90
7686;DHT22;3885;51.474;-2.576;2023-04-24T06:43:23;8.40;99.90
7686;DHT22;3885;51.474;-2.576;2023-04-24T06:45:50;8.50;99.90
7686;DHT22;3885;51.474;-2.576;2023-04-24T06:48:17;8.50;99.90
7686;DHT22;3885;51.474;-2.576;2023-04-24T06:50:46;8.50;99.90
7686;DHT22;3885;51.474;-2.576;2023-04-24T06:53:13;8.60;99.90
7686;DHT22;3885;51.474;-2.576;2023-04-24T06:55:40;8.70;99.90
7686;DHT22;3885;51.474;-2.576;2023-04-24T06:58:08;8.80;99.90
7686;DHT22;3885;51.474;-2.576;2023-04-24T07:00:35;8.90;99.90
7686;DHT22;3885;51.474;-2.576;2023-04-24T07:03:02;8.90;99.90
7686;DHT22;3885;51.474;-2.576;2023-04-24T07:05:30;9.10;99.90
7686;DHT22;3885;51.474;-2.576;2023-04-24T07:08:01;9.20;99.90
7686;DHT22;3885;51.474;-2.576;2023-04-24T07:10:28;9.30;99.90
7686;DHT22;3885;51.474;-2.576;2023-04-24T07:12:55;9.30;99.90
7686;DHT22;3885;51.474;-2.576;2023-04-24T07:15:22;9.40;99.90
7686;DHT22;3885;51.474;-2.576;2023-04-24T07:17:50;9.50;99.90
7686;DHT22;3885;51.474;-2.576;2023-04-24T07:20:16;9.50;99.90
7686;DHT22;3885;51.474;-2.576;2023-04-24T07:22:43;9.60;99.90
7686;DHT22;3885;51.474;-2.576;2023-04-24T07:25:12;9.70;99.90
7686;DHT22;3885;51.474;-2.576;2023-04-24T07:27:39;9.80;99.90
7686;DHT22;3885;51.474;-2.576;2023-04-24T07:30:07;9.90;99.90
7686;DHT22;3885;51.474;-2.576;2023-04-24T07:32:34;10.00;99.90
7686;DHT22;3885;51.474;-2.576;2023-04-24T07:35:01;10.10;99.90
7686;DHT22;3885;51.474;-2.576;2023-04-24T07:37:28;10.20;99.90
7686;DHT22;3885;51.474;-2.576;2023-04-24T07:42:24;10.00;99.90
7686;DHT22;3885;51.474;-2.576;2023-04-24T07:47:18;10.00;99.90
7686;DHT22;3885;51.474;-2.576;2023-04-24T07:49:45;10.20;99.90
7686;DHT22;3885;51.474;-2.576;2023-04-24T07:54:39;10.30;99.90
7686;DHT22;3885;51.474;-2.576;2023-04-24T07:57:06;10.40;99.90
7686;DHT22;3885;51.474;-2.576;2023-04-24T07:59:35;10.70;99.90
7686;DHT22;3885;51.474;-2.576;2023-04-24T08:02:02;10.80;99.90
7686;DHT22;3885;51.474;-2.576;2023-04-24T08:04:29;11.10;99.90
7686;DHT22;3885;51.474;-2.576;2023-04-24T08:09:23;11.30;99.90
7686;DHT22;3885;51.474;-2.576;2023-04-24T08:11:50;11.50;99.90
7686;DHT22;3885;51.474;-2.576;2023-04-24T08:14:17;11.50;99.90
7686;DHT22;3885;51.474;-2.576;2023-04-24T08:16:45;11.70;99.90
7686;DHT22;3885;51.474;-2.576;2023-04-24T08:19:12;11.70;99.90
7686;DHT22;3885;51.474;-2.576;2023-04-24T08:21:39;11.90;99.90
7686;DHT22;3885;51.474;-2.576;2023-04-24T08:24:06;11.80;99.90
7686;DHT22;3885;51.474;-2.576;2023-04-24T08:26:33;11.90;99.90
7686;DHT22;3885;51.474;-2.576;2023-04-24T08:29:00;11.90;99.90
7686;DHT22;3885;51.474;-2.576;2023-04-24T08:31:27;11.90;99.90
7686;DHT22;3885;51.474;-2.576;2023-04-24T08:33:56;11.80;99.90
7686;DHT22;3885;51.474;-2.576;2023-04-24T08:38:50;11.30;99.90
7686;DHT22;3885;51.474;-2.576;2023-04-24T08:43:46;11.20;99.90
7686;DHT22;3885;51.474;-2.576;2023-04-24T08:46:13;11.00;99.90
7686;DHT22;3885;51.474;-2.576;2023-04-24T08:48:42;10.90;99.90
7686;DHT22;3885;51.474;-2.576;2023-04-24T08:51:10;10.90;99.90
7686;DHT22;3885;51.474;-2.576;2023-04-24T08:58:33;11.00;99.90
7686;DHT22;3885;51.474;-2.576;2023-04-24T09:01:00;11.00;99.90
7686;DHT22;3885;51.474;-2.576;2023-04-24T09:03:29;10.90;99.90
7686;DHT22;3885;51.474;-2.576;2023-04-24T09:05:57;11.00;99.90
7686;DHT22;3885;51.474;-2.576;2023-04-24T09:08:26;11.00;99.90
7686;DHT22;3885;51.474;-2.576;2023-04-24T09:10:54;10.90;99.90
7686;DHT22;3885;51.474;-2.576;2023-04-24T09:13:24;10.90;99.90
7686;DHT22;3885;51.474;-2.576;2023-04-24T09:15:51;10.80;99.90
7686;DHT22;3885;51.474;-2.576;2023-04-24T09:18:19;10.80;99.90
7686;DHT22;3885;51.474;-2.576;2023-04-24T09:21:00;10.70;99.90
7686;DHT22;3885;51.474;-2.576;2023-04-24T09:23:29;10.70;99.90
7686;DHT22;3885;51.474;-2.576;2023-04-24T09:25:57;10.70;99.90
7686;DHT22;3885;51.474;-2.576;2023-04-24T09:28:30;10.60;99.90
7686;DHT22;3885;51.474;-2.576;2023-04-24T09:36:02;10.40;99.90
7686;DHT22;3885;51.474;-2.576;2023-04-24T09:38:36;10.30;99.90
7686;DHT22;3885;51.474;-2.576;2023-04-24T09:41:05;10.20;99.90
7686;DHT22;3885;51.474;-2.576;2023-04-24T09:48:33;10.10;99.90
7686;DHT22;3885;51.474;-2.576;2023-04-24T09:53:29;9.90;99.90
7686;DHT22;3885;51.474;-2.576;2023-04-24T09:56:02;9.80;99.90
7686;DHT22;3885;51.474;-2.576;2023-04-24T09:58:29;9.80;99.90
7686;DHT22;3885;51.474;-2.576;2023-04-24T10:00:56;9.70;99.90
7686;DHT22;3885;51.474;-2.576;2023-04-24T10:03:24;9.70;99.90
7686;DHT22;3885;51.474;-2.576;2023-04-24T10:05:53;9.60;99.90
7686;DHT22;3885;51.474;-2.576;2023-04-24T10:08:21;9.60;99.90
7686;DHT22;3885;51.474;-2.576;2023-04-24T10:10:48;9.60;99.90
7686;DHT22;3885;51.474;-2.576;2023-04-24T10:13:16;9.60;99.90
7686;DHT22;3885;51.474;-2.576;2023-04-24T10:20:40;9.50;99.90
7686;DHT22;3885;51.474;-2.576;2023-04-24T10:23:07;9.60;99.90
7686;DHT22;3885;51.474;-2.576;2023-04-24T10:28:02;9.70;99.90
7686;DHT22;3885;51.474;-2.576;2023-04-24T10:33:02;9.70;99.90
7686;DHT22;3885;51.474;-2.576;2023-04-24T10:35:31;9.60;99.90
7686;DHT22;3885;51.474;-2.576;2023-04-24T10:38:03;9.50;99.90
7686;DHT22;3885;51.474;-2.576;2023-04-24T10:40:32;9.50;99.90
7686;DHT22;3885;51.474;-2.576;2023-04-24T10:43:02;9.50;99.90
7686;DHT22;3885;51.474;-2.576;2023-04-24T10:45:33;9.50;99.90
7686;DHT22;3885;51.474;-2.576;2023-04-24T10:48:02;9.50;99.90
7686;DHT22;3885;51.474;-2.576;2023-04-24T10:50:42;9.40;99.90
7686;DHT22;3885;51.474;-2.576;2023-04-24T10:55:42;9.40;99.90
7686;DHT22;3885;51.474;-2.576;2023-04-24T10:58:10;9.10;99.90
7686;DHT22;3885;51.474;-2.576;2023-04-24T11:00:39;9.30;99.90
7686;DHT22;3885;51.474;-2.576;2023-04-24T11:03:22;9.40;99.90
7686;DHT22;3885;51.474;-2.576;2023-04-24T11:05:51;9.60;99.90
7686;DHT22;3885;51.474;-2.576;2023-04-24T11:08:39;9.70;99.90
7686;DHT22;3885;51.474;-2.576;2023-04-24T11:11:10;9.80;99.90
7686;DHT22;3885;51.474;-2.576;2023-04-24T11:14:03;9.90;99.90
7686;DHT22;3885;51.474;-2.576;2023-04-24T11:19:02;10.00;99.90
7686;DHT22;3885;51.474;-2.576;2023-04-24T11:21:39;10.00;99.90
7686;DHT22;3885;51.474;-2.576;2023-04-24T11:24:25;10.10;99.90
7686;DHT22;3885;51.474;-2.576;2023-04-24T11:26:53;10.30;99.90
7686;DHT22;3885;51.474;-2.576;2023-04-24T11:31:49;10.30;99.90
7686;DHT22;3885;51.474;-2.576;2023-04-24T11:34:18;10.30;99.90
7686;DHT22;3885;51.474;-2.576;2023-04-24T11:36:46;10.40;99.90
7686;DHT22;3885;51.474;-2.576;2023-04-24T11:41:40;10.70;99.90
7686;DHT22;3885;51.474;-2.576;2023-04-24T11:44:08;10.80;99.90
7686;DHT22;3885;51.474;-2.576;2023-04-24T11:46:37;10.90;99.90
7686;DHT22;3885;51.474;-2.576;2023-04-24T11:49:06;10.90;99.90
7686;DHT22;3885;51.474;-2.576;2023-04-24T11:51:34;10.90;99.90
7686;DHT22;3885;51.474;-2.576;2023-04-24T11:54:01;10.80;99.90
7686;DHT22;3885;51.474;-2.576;2023-04-24T11:58:56;10.90;99.90
7686;DHT22;3885;51.474;-2.576;2023-04-24T12:01:23;10.90;99.90
7686;DHT22;3885;51.474;-2.576;2023-04-24T12:03:50;11.00;99.90
7686;DHT22;3885;51.474;-2.576;2023-04-24T12:06:19;11.10;99.90
7686;DHT22;3885;51.474;-2.576;2023-04-24T12:08:46;10.90;99.90
7686;DHT22;3885;51.474;-2.576;2023-04-24T12:11:16;10.90;99.90
7686;DHT22;3885;51.474;-2.576;2023-04-24T12:13:44;11.00;99.90
7686;DHT22;3885;51.474;-2.576;2023-04-24T12:16:12;11.00;99.90
7686;DHT22;3885;51.474;-2.576;2023-04-24T12:18:43;11.00;99.90
7686;DHT22;3885;51.474;-2.576;2023-04-24T12:21:19;11.00;99.90
7686;DHT22;3885;51.474;-2.576;2023-04-24T12:23:47;11.20;99.90
7686;DHT22;3885;51.474;-2.576;2023-04-24T12:26:16;11.30;99.90
7686;DHT22;3885;51.474;-2.576;2023-04-24T12:28:46;11.40;99.90
7686;DHT22;3885;51.474;-2.576;2023-04-24T12:31:13;11.30;99.90
7686;DHT22;3885;51.474;-2.576;2023-04-24T12:33:41;11.20;99.90
7686;DHT22;3885;51.474;-2.576;2023-04-24T12:36:10;11.30;99.90
7686;DHT22;3885;51.474;-2.576;2023-04-24T12:38:39;11.30;99.90
7686;DHT22;3885;51.474;-2.576;2023-04-24T12:41:11;11.40;99.90
7686;DHT22;3885;51.474;-2.576;2023-04-24T12:43:51;11.30;99.90
7686;DHT22;3885;51.474;-2.576;2023-04-24T12:46:19;11.30;99.90
7686;DHT22;3885;51.474;-2.576;2023-04-24T12:48:46;11.10;99.90
7686;DHT22;3885;51.474;-2.576;2023-04-24T12:51:13;11.00;99.90
7686;DHT22;3885;51.474;-2.576;2023-04-24T12:53:41;11.10;99.90
7686;DHT22;3885;51.474;-2.576;2023-04-24T12:56:08;11.20;99.90
7686;DHT22;3885;51.474;-2.576;2023-04-24T12:58:35;11.30;99.90
7686;DHT22;3885;51.474;-2.576;2023-04-24T13:01:02;11.30;99.90
7686;DHT22;3885;51.474;-2.576;2023-04-24T13:03:29;11.30;99.90
7686;DHT22;3885;51.474;-2.576;2023-04-24T13:05:55;11.50;99.90
7686;DHT22;3885;51.474;-2.576;2023-04-24T13:08:22;11.60;99.90
7686;DHT22;3885;51.474;-2.576;2023-04-24T13:10:51;11.30;99.90
7686;DHT22;3885;51.474;-2.576;2023-04-24T13:18:13;11.40;99.90
7686;DHT22;3885;51.474;-2.576;2023-04-24T13:20:40;11.40;99.90
7686;DHT22;3885;51.474;-2.576;2023-04-24T13:25:36;11.30;99.90
7686;DHT22;3885;51.474;-2.576;2023-04-24T13:28:06;11.40;99.90
7686;DHT22;3885;51.474;-2.576;2023-04-24T13:30:32;11.50;99.90
7686;DHT22;3885;51.474;-2.576;2023-04-24T13:35:27;11.50;99.90
7686;DHT22;3885;51.474;-2.576;2023-04-24T13:37:54;11.80;99.90
7686;DHT22;3885;51.474;-2.576;2023-04-24T13:40:21;12.00;99.90
7686;DHT22;3885;51.474;-2.576;2023-04-24T13:42:48;12.10;99.90
7686;DHT22;3885;51.474;-2.576;2023-04-24T13:46:02;12.30;99.90
7686;DHT22;3885;51.474;-2.576;2023-04-24T14:04:05;11.00;99.90
7686;DHT22;3885;51.474;-2.576;2023-04-24T14:10:34;10.70;99.90
7686;DHT22;3885;51.474;-2.576;2023-04-24T14:16:41;10.60;99.90
7686;DHT22;3885;51.474;-2.576;2023-04-24T14:36:04;10.40;99.90
7686;DHT22;3885;51.474;-2.576;2023-04-24T14:40:58;10.00;99.90
7686;DHT22;3885;51.474;-2.576;2023-04-24T14:43:43;9.80;99.90
7686;DHT22;3885;51.474;-2.576;2023-04-24T14:47:07;9.80;99.90
7686;DHT22;3885;51.474;-2.576;2023-04-24T15:06:19;9.20;99.90
7686;DHT22;3885;51.474;-2.576;2023-04-24T15:13:40;9.00;99.90
7686;DHT22;3885;51.474;-2.576;2023-04-24T15:23:30;8.70;99.90
7686;DHT22;3885;51.474;-2.576;2023-04-24T15:25:57;8.60;99.90
7686;DHT22;3885;51.474;-2.576;2023-04-24T15:28:24;8.50;99.90
7686;DHT22;3885;51.474;-2.576;2023-04-24T15:30:51;8.50;99.90
7686;DHT22;3885;51.474;-2.576;2023-04-24T15:33:19;8.60;99.90
7686;DHT22;3885;51.474;-2.576;2023-04-24T15:35:47;8.60;99.90
7686;DHT22;3885;51.474;-2.576;2023-04-24T15:38:14;8.60;99.90
7686;DHT22;3885;51.474;-2.576;2023-04-24T15:40:41;8.60;99.90
7686;DHT22;3885;51.474;-2.576;2023-04-24T15:43:08;8.50;99.90
7686;DHT22;3885;51.474;-2.576;2023-04-24T15:45:36;8.40;99.90
7686;DHT22;3885;51.474;-2.576;2023-04-24T15:48:03;8.30;99.90
7686;DHT22;3885;51.474;-2.576;2023-04-24T15:52:58;8.40;99.90
7686;DHT22;3885;51.474;-2.576;2023-04-24T15:55:26;8.30;99.90
7686;DHT22;3885;51.474;-2.576;2023-04-24T15:57:53;8.20;99.90
7686;DHT22;3885;51.474;-2.576;2023-04-24T16:00:20;8.20;99.90
7686;DHT22;3885;51.474;-2.576;2023-04-24T16:02:47;8.30;99.90
7686;DHT22;3885;51.474;-2.576;2023-04-24T16:05:16;8.30;99.90
7686;DHT22;3885;51.474;-2.576;2023-04-24T16:10:13;8.30;99.90
7686;DHT22;3885;51.474;-2.576;2023-04-24T16:20:02;8.00;99.90
7686;DHT22;3885;51.474;-2.576;2023-04-24T16:24:58;7.90;99.90
7686;DHT22;3885;51.474;-2.576;2023-04-24T16:27:25;7.80;99.90
7686;DHT22;3885;51.474;-2.576;2023-04-24T16:32:19;7.90;99.90
7686;DHT22;3885;51.474;-2.576;2023-04-24T16:34:46;7.90;99.90
7686;DHT22;3885;51.474;-2.576;2023-04-24T16:37:13;7.80;99.90
7686;DHT22;3885;51.474;-2.576;2023-04-24T16:39:40;7.90;99.90
7686;DHT22;3885;51.474;-2.576;2023-04-24T16:47:06;8.00;99.90
7686;DHT22;3885;51.474;-2.576;2023-04-24T16:49:33;8.00;99.90
7686;DHT22;3885;51.474;-2.576;2023-04-24T16:52:00;7.90;99.90
7686;DHT22;3885;51.474;-2.576;2023-04-24T16:56:55;8.00;99.90
7686;DHT22;3885;51.474;-2.576;2023-04-24T16:59:23;8.00;99.90
7686;DHT22;3885;51.474;-2.576;2023-04-24T17:01:50;8.10;99.90
7686;DHT22;3885;51.474;-2.576;2023-04-24T17:06:45;8.10;99.90
7686;DHT22;3885;51.474;-2.576;2023-04-24T17:11:40;8.10;99.90
7686;DHT22;3885;51.474;-2.576;2023-04-24T17:16:36;8.20;99.90
7686;DHT22;3885;51.474;-2.576;2023-04-24T17:19:05;8.20;99.90
7686;DHT22;3885;51.474;-2.576;2023-04-24T17:21:32;8.20;99.90
7686;DHT22;3885;51.474;-2.576;2023-04-24T17:23:59;8.20;99.90
7686;DHT22;3885;51.474;-2.576;2023-04-24T17:26:26;8.10;99.90
7686;DHT22;3885;51.474;-2.576;2023-04-24T17:28:55;8.00;99.90
7686;DHT22;3885;51.474;-2.576;2023-04-24T17:31:22;8.10;99.90
7686;DHT22;3885;51.474;-2.576;2023-04-24T17:33:51;8.10;99.90
7686;DHT22;3885;51.474;-2.576;2023-04-24T17:36:17;8.20;99.90
7686;DHT22;3885;51.474;-2.576;2023-04-24T17:38:44;8.20;99.90
7686;DHT22;3885;51.474;-2.576;2023-04-24T17:41:11;8.20;99.90
7686;DHT22;3885;51.474;-2.576;2023-04-24T17:46:09;8.10;99.90
7686;DHT22;3885;51.474;-2.576;2023-04-24T17:48:36;8.20;99.90
7686;DHT22;3885;51.474;-2.576;2023-04-24T17:51:05;8.10;99.90
7686;DHT22;3885;51.474;-2.576;2023-04-24T17:53:32;8.10;99.90
7686;DHT22;3885;51.474;-2.576;2023-04-24T17:56:00;8.10;99.90
7686;DHT22;3885;51.474;-2.576;2023-04-24T17:58:28;8.10;99.90
7686;DHT22;3885;51.474;-2.576;2023-04-24T18:03:22;8.00;99.90
7686;DHT22;3885;51.474;-2.576;2023-04-24T18:08:18;8.00;99.90
7686;DHT22;3885;51.474;-2.576;2023-04-24T18:10:45;8.10;99.90
7686;DHT22;3885;51.474;-2.576;2023-04-24T18:13:12;8.00;99.90
7686;DHT22;3885;51.474;-2.576;2023-04-24T18:15:39;8.00;99.90
7686;DHT22;3885;51.474;-2.576;2023-04-24T18:18:07;8.00;99.90
7686;DHT22;3885;51.474;-2.576;2023-04-24T18:20:35;7.90;99.90
7686;DHT22;3885;51.474;-2.576;2023-04-24T18:23:03;7.90;99.90
7686;DHT22;3885;51.474;-2.576;2023-04-24T18:25:32;7.90;99.90
7686;DHT22;3885;51.474;-2.576;2023-04-24T18:30:26;7.90;99.90
7686;DHT22;3885;51.474;-2.576;2023-04-24T18:32:55;7.90;99.90
7686;DHT22;3885;51.474;-2.576;2023-04-24T18:35:22;7.80;99.90
7686;DHT22;3885;51.474;-2.576;2023-04-24T18:37:50;7.80;99.90
7686;DHT22;3885;51.474;-2.576;2023-04-24T18:40:17;7.80;99.90
7686;DHT22;3885;51.474;-2.576;2023-04-24T18:42:46;7.80;99.90
7686;DHT22;3885;51.474;-2.576;2023-04-24T18:45:13;7.70;99.90
7686;DHT22;3885;51.474;-2.576;2023-04-24T18:47:39;7.70;99.90
7686;DHT22;3885;51.474;-2.576;2023-04-24T18:50:07;7.70;99.90
7686;DHT22;3885;51.474;-2.576;2023-04-24T18:52:34;7.70;99.90
7686;DHT22;3885;51.474;-2.576;2023-04-24T18:55:02;7.70;99.90
7686;DHT22;3885;51.474;-2.576;2023-04-24T18:57:31;7.70;99.90
7686;DHT22;3885;51.474;-2.576;2023-04-24T18:59:59;7.70;99.90
7686;DHT22;3885;51.474;-2.576;2023-04-24T19:04:53;7.60;99.90
7686;DHT22;3885;51.474;-2.576;2023-04-24T19:12:15;7.60;99.90
7686;DHT22;3885;51.474;-2.576;2023-04-24T19:17:10;7.60;99.90
7686;DHT22;3885;51.474;-2.576;2023-04-24T19:19:37;7.60;99.90
7686;DHT22;3885;51.474;-2.576;2023-04-24T19:22:04;7.60;99.90
7686;DHT22;3885;51.474;-2.576;2023-04-24T19:24:32;7.60;99.90
7686;DHT22;3885;51.474;-2.576;2023-04-24T19:34:24;7.50;99.90
7686;DHT22;3885;51.474;-2.576;2023-04-24T19:41:46;7.60;99.90
7686;DHT22;3885;51.474;-2.576;2023-04-24T19:44:12;7.60;99.90
7686;DHT22;3885;51.474;-2.576;2023-04-24T19:46:41;7.60;99.90
7686;DHT22;3885;51.474;-2.576;2023-04-24T19:49:08;7.60;99.90